createdAt,value
2023-02-11T00:00:41.215Z,45.45
2023-02-11T00:03:08.528Z,45.56
2023-02-11T00:05:35.370Z,44.84
2023-02-11T00:08:02.117Z,44.73
2023-02-11T00:10:28.861Z,44.53
2023-02-11T00:12:56.208Z,44.59
2023-02-11T00:15:23.004Z,44.67
2023-02-11T00:17:49.665Z,44.44
2023-02-11T00:20:16.491Z,44.37
2023-02-11T00:22:43.861Z,43.98
2023-02-11T00:25:10.554Z,43.96
2023-02-11T00:27:37.985Z,44.08
2023-02-11T00:30:06.265Z,43.70
2023-02-11T00:32:33.133Z,43.57
2023-02-11T00:34:59.703Z,44.22
2023-02-11T00:37:26.349Z,44.23
2023-02-11T00:39:53.119Z,44.40
2023-02-11T00:42:19.883Z,44.75
2023-02-11T00:44:46.608Z,45.29
2023-02-11T00:47:16.870Z,45.72
2023-02-11T00:49:44.194Z,45.98
2023-02-11T00:52:10.869Z,45.98
2023-02-11T00:54:37.517Z,46.08
2023-02-11T00:57:04.583Z,46.05
2023-02-11T00:59:31.400Z,46.31
2023-02-11T01:01:59.502Z,46.45
2023-02-11T01:04:27.436Z,46.56
2023-02-11T01:06:54.144Z,46.91
2023-02-11T01:09:21.453Z,47.03
2023-02-11T01:11:48.274Z,46.99
2023-02-11T01:14:15.560Z,47.32
2023-02-11T01:16:43.220Z,47.54
2023-02-11T01:19:09.940Z,47.37
2023-02-11T01:21:36.801Z,47.41
2023-02-11T01:24:03.649Z,47.32
2023-02-11T01:26:30.322Z,47.27
2023-02-11T01:29:00.123Z,47.27
2023-02-11T01:31:27.917Z,47.37
2023-02-11T01:33:54.693Z,47.45
2023-02-11T01:36:21.346Z,47.32
2023-02-11T01:38:50.005Z,47.44
2023-02-11T01:41:20.284Z,47.64
2023-02-11T01:43:49.551Z,47.84
2023-02-11T01:46:37.832Z,47.84
2023-02-11T01:49:09.389Z,48.11
2023-02-11T01:51:46.542Z,47.92
2023-02-11T01:54:35.433Z,48.18
2023-02-11T01:57:23.474Z,48.14
2023-02-11T02:00:18.052Z,48.60
2023-02-11T02:02:54.882Z,48.65
2023-02-11T02:05:28.175Z,48.54
2023-02-11T02:08:10.163Z,48.73
2023-02-11T02:10:40.423Z,48.62
2023-02-11T02:13:07.232Z,48.77
2023-02-11T02:15:36.358Z,48.83
2023-02-11T02:18:23.072Z,49.02
2023-02-11T02:21:17.869Z,49.06
2023-02-11T02:24:27.681Z,49.60
2023-02-11T02:27:21.301Z,49.27
2023-02-11T02:30:25.215Z,49.38
2023-02-11T02:33:16.711Z,49.22
2023-02-11T02:36:13.902Z,49.14
2023-02-11T02:38:51.830Z,49.13
2023-02-11T02:41:27.090Z,49.19
2023-02-11T02:43:54.704Z,49.21
2023-02-11T02:46:27.994Z,49.46
2023-02-11T02:48:56.726Z,49.39
2023-02-11T02:51:38.680Z,49.38
2023-02-11T02:54:23.557Z,49.36
2023-02-11T02:57:08.907Z,49.38
2023-02-11T02:59:38.240Z,49.40
2023-02-11T03:02:23.226Z,49.48
2023-02-11T03:05:05.206Z,49.28
2023-02-11T03:07:45.398Z,49.66
2023-02-11T03:10:41.352Z,49.37
2023-02-11T03:13:08.810Z,49.33
2023-02-11T03:15:41.924Z,49.33
2023-02-11T03:18:13.196Z,49.50
2023-02-11T03:20:43.554Z,49.53
2023-02-11T03:23:22.573Z,49.77
2023-02-11T03:25:55.973Z,49.53
2023-02-11T03:28:42.952Z,49.68
2023-02-11T03:31:17.087Z,49.67
2023-02-11T03:33:52.827Z,49.61
2023-02-11T03:36:27.601Z,49.82
2023-02-11T03:38:58.690Z,49.74
2023-02-11T03:41:26.192Z,49.54
2023-02-11T03:43:56.968Z,49.80
2023-02-11T03:46:38.544Z,49.96
2023-02-11T03:49:12.487Z,49.73
2023-02-11T03:51:40.440Z,49.73
2023-02-11T03:54:14.242Z,50.13
2023-02-11T03:56:54.317Z,50.15
2023-02-11T03:59:21.028Z,50.31
2023-02-11T04:01:47.822Z,50.06
2023-02-11T04:04:15.091Z,50.35
2023-02-11T04:06:41.896Z,50.23
2023-02-11T04:09:09.021Z,49.82
2023-02-11T04:11:35.741Z,49.84
2023-02-11T04:14:02.418Z,50.07
2023-02-11T04:16:31.110Z,50.14
2023-02-11T04:18:58.059Z,50.37
2023-02-11T04:21:24.751Z,50.22
2023-02-11T04:23:51.418Z,50.14
2023-02-11T04:26:18.090Z,50.46
2023-02-11T04:28:44.808Z,50.46
2023-02-11T04:31:12.205Z,50.41
2023-02-11T04:33:39.125Z,50.48
2023-02-11T04:36:05.886Z,50.47
2023-02-11T04:38:32.625Z,50.63
2023-02-11T04:41:00.625Z,50.45
2023-02-11T04:43:27.651Z,50.88
2023-02-11T04:45:58.858Z,50.65
2023-02-11T04:48:26.356Z,50.73
2023-02-11T04:50:53.080Z,50.57
2023-02-11T04:53:20.118Z,50.90
2023-02-11T04:55:50.937Z,51.07
2023-02-11T04:58:19.780Z,50.94
2023-02-11T05:00:47.111Z,50.96
2023-02-11T05:03:14.113Z,50.96
2023-02-11T05:05:42.693Z,50.89
2023-02-11T05:08:10.925Z,51.11
2023-02-11T05:10:37.968Z,51.30
2023-02-11T05:13:05.061Z,51.26
2023-02-11T05:15:31.981Z,51.35
2023-02-11T05:17:58.626Z,51.20
2023-02-11T05:20:25.780Z,51.05
2023-02-11T05:22:52.652Z,51.05
2023-02-11T05:25:20.570Z,51.30
2023-02-11T05:27:47.425Z,50.88
2023-02-11T05:30:14.488Z,51.17
2023-02-11T05:32:41.331Z,51.36
2023-02-11T05:35:09.427Z,51.33
2023-02-11T05:37:36.244Z,51.01
2023-02-11T05:40:02.940Z,51.35
2023-02-11T05:42:29.598Z,51.01
2023-02-11T05:44:56.298Z,51.24
2023-02-11T05:47:23.080Z,51.20
2023-02-11T05:49:51.483Z,51.44
2023-02-11T05:52:18.108Z,51.35
2023-02-11T05:54:44.775Z,51.26
2023-02-11T05:57:11.774Z,51.53
2023-02-11T05:59:38.913Z,51.81
2023-02-11T06:02:05.714Z,51.74
2023-02-11T06:04:32.365Z,51.78
2023-02-11T06:06:59.095Z,51.75
2023-02-11T06:09:26.563Z,51.89
2023-02-11T06:11:53.421Z,52.04
2023-02-11T06:14:20.251Z,51.65
2023-02-11T06:16:46.925Z,52.07
2023-02-11T06:19:13.890Z,52.00
2023-02-11T06:21:44.129Z,51.66
2023-02-11T06:24:12.025Z,52.17
2023-02-11T06:26:40.312Z,52.00
2023-02-11T06:29:07.253Z,51.88
2023-02-11T06:31:33.953Z,52.24
2023-02-11T06:34:01.088Z,52.61
2023-02-11T06:36:27.816Z,52.68
2023-02-11T06:38:55.201Z,52.42
2023-02-11T06:41:22.067Z,52.29
2023-02-11T06:43:49.113Z,52.65
2023-02-11T06:46:16.324Z,52.38
2023-02-11T06:48:44.818Z,52.76
2023-02-11T06:51:14.071Z,52.98
2023-02-11T06:53:49.649Z,53.59
2023-02-11T06:56:19.916Z,53.91
2023-02-11T06:58:47.911Z,54.40
2023-02-11T07:01:16.549Z,54.35
2023-02-11T07:03:47.331Z,54.63
2023-02-11T07:06:21.342Z,54.53
2023-02-11T07:08:48.425Z,54.43
2023-02-11T07:11:21.174Z,54.27
2023-02-11T07:13:48.282Z,54.53
2023-02-11T07:16:16.652Z,54.65
2023-02-11T07:18:44.773Z,54.59
2023-02-11T07:21:13.851Z,54.78
2023-02-11T07:23:41.669Z,54.27
2023-02-11T07:26:11.249Z,54.02
2023-02-11T07:28:39.186Z,54.13
2023-02-11T07:31:27.382Z,54.54
2023-02-11T07:33:56.034Z,54.48
2023-02-11T07:36:23.575Z,54.74
2023-02-11T07:38:50.653Z,53.77
2023-02-11T07:41:20.587Z,53.44
2023-02-11T07:43:48.095Z,53.22
2023-02-11T07:46:21.379Z,53.07
2023-02-11T07:48:48.698Z,53.03
2023-02-11T07:51:18.385Z,53.50
2023-02-11T07:53:45.502Z,53.07
2023-02-11T07:56:13.634Z,53.51
2023-02-11T07:58:42.301Z,53.46
2023-02-11T08:01:15.675Z,52.75
2023-02-11T08:03:43.206Z,52.48
2023-02-11T08:06:15.715Z,52.22
2023-02-11T08:08:43.526Z,51.91
2023-02-11T08:11:15.112Z,51.64
2023-02-11T08:13:42.747Z,51.88
2023-02-11T08:16:16.993Z,51.64
2023-02-11T08:18:43.692Z,51.38
2023-02-11T08:21:11.163Z,51.72
2023-02-11T08:23:39.354Z,51.77
2023-02-11T08:26:08.906Z,52.06
2023-02-11T08:28:40.421Z,51.89
2023-02-11T08:31:09.055Z,51.39
2023-02-11T08:33:36.406Z,51.23
2023-02-11T08:36:09.907Z,51.35
2023-02-11T08:38:36.753Z,51.44
2023-02-11T08:41:03.359Z,51.88
2023-02-11T08:43:30.124Z,52.29
2023-02-11T08:45:56.845Z,51.60
2023-02-11T08:48:23.520Z,51.05
2023-02-11T08:50:50.193Z,51.77
2023-02-11T08:53:16.934Z,51.93
2023-02-11T08:55:54.693Z,51.31
2023-02-11T08:58:22.452Z,51.23
2023-02-11T09:00:50.570Z,51.19
2023-02-11T09:03:17.923Z,51.03
2023-02-11T09:05:50.214Z,52.50
2023-02-11T09:08:17.149Z,52.12
2023-02-11T09:10:43.816Z,51.27
2023-02-11T09:13:10.707Z,50.74
2023-02-11T09:15:37.506Z,50.48
2023-02-11T09:18:05.245Z,50.37
2023-02-11T09:20:32.340Z,49.50
2023-02-11T09:22:59.672Z,50.24
2023-02-11T09:25:26.692Z,49.86
2023-02-11T09:27:53.925Z,49.94
2023-02-11T09:30:21.459Z,50.35
2023-02-11T09:32:48.740Z,50.37
2023-02-11T09:35:15.454Z,51.50
2023-02-11T09:37:42.116Z,50.59
2023-02-11T09:40:10.078Z,51.10
2023-02-11T09:43:03.758Z,49.45
2023-02-11T09:45:31.423Z,49.24
2023-02-11T09:48:05.838Z,48.62
2023-02-11T09:50:36.457Z,48.90
2023-02-11T09:53:20.533Z,48.95
2023-02-11T09:55:55.785Z,49.83
2023-02-11T09:58:27.511Z,49.35
2023-02-11T10:00:54.170Z,49.73
2023-02-11T10:03:27.043Z,50.33
2023-02-11T10:05:53.643Z,50.03
2023-02-11T10:08:30.790Z,49.58
2023-02-11T10:11:08.781Z,48.78
2023-02-11T10:14:01.516Z,49.28
2023-02-11T10:16:46.498Z,49.48
2023-02-11T10:19:25.343Z,49.76
2023-02-11T10:21:58.906Z,49.46
2023-02-11T10:24:28.876Z,49.07
2023-02-11T10:26:55.842Z,48.62
2023-02-11T10:29:35.663Z,49.41
2023-02-11T10:32:07.587Z,48.81
2023-02-11T10:34:40.400Z,48.83
2023-02-11T10:37:07.324Z,49.21
2023-02-11T10:39:33.994Z,48.52
2023-02-11T10:42:07.802Z,48.67
2023-02-11T10:44:41.622Z,48.90
2023-02-11T10:47:19.053Z,48.66
2023-02-11T10:49:49.067Z,49.07
2023-02-11T10:52:24.312Z,49.11
2023-02-11T10:54:56.158Z,49.60
2023-02-11T10:57:26.599Z,48.56
2023-02-11T10:59:59.388Z,49.10
2023-02-11T11:02:34.737Z,48.20
2023-02-11T11:05:16.508Z,47.95
2023-02-11T11:07:57.340Z,47.66
2023-02-11T11:10:45.083Z,47.79
2023-02-11T11:13:43.496Z,49.61
2023-02-11T11:16:13.387Z,47.85
2023-02-11T11:18:44.001Z,47.15
2023-02-11T11:21:26.440Z,47.40
2023-02-11T11:23:59.095Z,46.57
2023-02-11T11:26:29.698Z,46.65
2023-02-11T11:29:01.770Z,45.76
2023-02-11T11:31:33.474Z,45.96
2023-02-11T11:34:03.991Z,45.07
2023-02-11T11:36:37.868Z,46.16
2023-02-11T11:39:22.840Z,46.01
2023-02-11T11:41:54.901Z,45.55
2023-02-11T11:44:26.468Z,44.99
2023-02-11T11:47:11.284Z,45.19
2023-02-11T11:49:43.368Z,45.33
2023-02-11T11:52:19.770Z,45.47
2023-02-11T11:54:55.655Z,45.30
2023-02-11T11:57:28.837Z,47.12
2023-02-11T11:59:58.008Z,45.96
2023-02-11T12:02:47.909Z,45.53
2023-02-11T12:05:29.490Z,45.02
2023-02-11T12:08:24.650Z,45.58
2023-02-11T12:10:58.675Z,44.85
2023-02-11T12:13:46.653Z,45.19
2023-02-11T12:16:28.919Z,45.02
2023-02-11T12:19:07.866Z,44.84
2023-02-11T12:21:41.881Z,44.02
2023-02-11T12:24:17.185Z,43.08
2023-02-11T12:26:50.166Z,42.68
2023-02-11T12:29:35.455Z,42.85
2023-02-11T12:32:29.280Z,43.61
2023-02-11T12:35:35.206Z,41.28
2023-02-11T12:38:18.893Z,40.46
2023-02-11T12:41:04.957Z,41.51
2023-02-11T12:43:38.623Z,40.60
2023-02-11T12:46:14.620Z,40.94
2023-02-11T12:48:59.394Z,41.42
2023-02-11T12:51:25.982Z,40.59
2023-02-11T12:54:11.125Z,40.13
2023-02-11T12:57:05.245Z,40.51
2023-02-11T12:59:41.472Z,40.86
2023-02-11T13:02:54.622Z,41.71
2023-02-11T13:05:37.723Z,40.01
2023-02-11T13:08:37.438Z,39.75
2023-02-11T13:11:14.417Z,39.23
2023-02-11T13:13:52.677Z,39.96
2023-02-11T13:16:29.673Z,40.21
2023-02-11T13:19:01.473Z,42.92
2023-02-11T13:21:36.813Z,42.36
2023-02-11T13:24:26.829Z,44.55
2023-02-11T13:27:15.202Z,45.18
2023-02-11T13:30:21.791Z,45.44
2023-02-11T13:32:54.605Z,43.64
2023-02-11T13:35:40.139Z,45.34
2023-02-11T13:38:22.839Z,44.57
2023-02-11T13:41:25.135Z,46.17
2023-02-11T13:44:19.453Z,44.37
2023-02-11T13:46:59.801Z,43.44
2023-02-11T13:49:31.325Z,45.17
2023-02-11T13:51:59.831Z,44.63
2023-02-11T13:54:49.176Z,44.06
2023-02-11T13:57:22.073Z,44.49
2023-02-11T14:00:00.624Z,43.03
2023-02-11T14:02:54.828Z,42.18
2023-02-11T14:05:49.135Z,42.66
2023-02-11T14:08:39.350Z,41.68
2023-02-11T14:11:12.980Z,42.43
2023-02-11T14:13:48.898Z,44.54
2023-02-11T14:16:31.648Z,43.76
2023-02-11T14:19:03.831Z,43.31
2023-02-11T14:21:34.952Z,44.49
2023-02-11T14:24:02.924Z,43.15
2023-02-11T14:26:56.850Z,45.05
2023-02-11T14:29:42.550Z,46.85
2023-02-11T14:32:41.173Z,45.07
2023-02-11T14:35:39.252Z,44.34
2023-02-11T14:38:24.929Z,45.45
2023-02-11T14:41:19.957Z,44.80
2023-02-11T14:43:57.992Z,45.97
2023-02-11T14:46:27.943Z,46.11
2023-02-11T14:48:58.649Z,45.08
2023-02-11T14:51:32.024Z,44.31
2023-02-11T14:54:24.159Z,44.85
2023-02-11T14:57:24.874Z,43.34
2023-02-11T15:00:05.031Z,42.26
2023-02-11T15:02:37.796Z,42.48
2023-02-11T15:05:22.794Z,42.64
2023-02-11T15:08:02.453Z,45.61
2023-02-11T15:10:35.515Z,44.45
2023-02-11T15:13:04.022Z,45.53
2023-02-11T15:15:32.582Z,45.67
2023-02-11T15:18:03.472Z,44.94
2023-02-11T15:20:33.768Z,45.62
2023-02-11T15:23:09.446Z,44.69
2023-02-11T15:25:44.218Z,44.37
2023-02-11T15:28:22.873Z,43.29
2023-02-11T15:30:56.903Z,43.78
2023-02-11T15:33:25.540Z,43.94
2023-02-11T15:35:52.398Z,44.79
2023-02-11T15:38:19.618Z,44.53
2023-02-11T15:41:01.045Z,45.77
2023-02-11T15:43:48.972Z,46.68
2023-02-11T15:46:19.078Z,44.27
2023-02-11T15:48:55.518Z,43.96
2023-02-11T15:51:35.582Z,44.20
2023-02-11T15:54:05.815Z,46.50
2023-02-11T15:56:43.520Z,45.33
2023-02-11T15:59:38.406Z,43.95
2023-02-11T16:02:09.401Z,46.77
2023-02-11T16:04:37.145Z,47.03
2023-02-11T16:07:05.255Z,46.20
2023-02-11T16:09:35.014Z,45.75
2023-02-11T16:12:07.694Z,44.74
2023-02-11T16:14:39.384Z,45.63
2023-02-11T16:17:18.790Z,44.09
2023-02-11T16:19:48.679Z,43.85
2023-02-11T16:22:28.258Z,44.00
2023-02-11T16:24:58.311Z,44.05
2023-02-11T16:27:41.900Z,44.13
2023-02-11T16:30:34.422Z,44.11
2023-02-11T16:33:04.189Z,44.01
2023-02-11T16:35:31.435Z,44.38
2023-02-11T16:37:58.207Z,45.07
2023-02-11T16:40:24.832Z,44.64
2023-02-11T16:42:53.359Z,45.33
2023-02-11T16:45:20.912Z,45.15
2023-02-11T16:47:47.860Z,45.35
2023-02-11T16:50:25.767Z,44.98
2023-02-11T16:52:53.023Z,45.32
2023-02-11T16:55:22.067Z,44.97
2023-02-11T16:57:49.206Z,45.67
2023-02-11T17:00:17.308Z,45.12
2023-02-11T17:02:44.140Z,45.40
2023-02-11T17:05:20.839Z,45.71
2023-02-11T17:07:47.673Z,45.70
2023-02-11T17:10:24.384Z,45.51
2023-02-11T17:12:53.508Z,46.00
2023-02-11T17:15:20.546Z,46.07
2023-02-11T17:17:48.175Z,46.52
2023-02-11T17:20:15.505Z,46.32
2023-02-11T17:22:42.360Z,46.48
2023-02-11T17:25:12.665Z,46.65
2023-02-11T17:27:39.507Z,46.98
2023-02-11T17:30:07.437Z,47.24
2023-02-11T17:32:34.157Z,47.19
2023-02-11T17:35:00.778Z,47.32
2023-02-11T17:37:28.765Z,47.57
2023-02-11T17:42:40.250Z,48.27
2023-02-11T17:45:08.839Z,48.25
2023-02-11T17:47:36.068Z,48.12
2023-02-11T17:50:03.199Z,48.28
2023-02-11T17:52:30.028Z,48.46
2023-02-11T17:54:57.988Z,48.70
2023-02-11T17:57:24.757Z,49.14
2023-02-11T17:59:51.563Z,49.23
2023-02-11T18:02:18.314Z,49.48
2023-02-11T18:04:45.053Z,49.80
2023-02-11T18:07:11.777Z,49.45
2023-02-11T18:09:41.786Z,49.56
2023-02-11T18:12:08.993Z,49.30
2023-02-11T18:14:35.680Z,49.31
2023-02-11T18:17:02.332Z,49.29
2023-02-11T18:19:30.650Z,49.46
2023-02-11T18:22:00.831Z,49.62
2023-02-11T18:24:27.750Z,49.39
2023-02-11T18:26:54.383Z,49.37
2023-02-11T18:29:21.052Z,49.67
2023-02-11T18:31:47.733Z,49.81
2023-02-11T18:34:15.929Z,49.67
2023-02-11T18:36:42.688Z,49.76
2023-02-11T18:39:09.525Z,49.85
2023-02-11T18:41:36.297Z,49.98
2023-02-11T18:44:05.555Z,49.99
2023-02-11T18:46:32.417Z,50.08
2023-02-11T18:48:59.087Z,50.13
2023-02-11T18:51:25.797Z,50.15
2023-02-11T18:53:53.085Z,50.28
2023-02-11T18:56:22.976Z,50.49
2023-02-11T18:58:51.872Z,50.72
2023-02-11T19:01:25.714Z,50.68
2023-02-11T19:03:53.773Z,50.58
2023-02-11T19:06:27.418Z,50.69
2023-02-11T19:08:58.257Z,50.77
2023-02-11T19:11:45.696Z,51.00
2023-02-11T19:14:14.086Z,50.84
2023-02-11T19:16:42.938Z,50.96
2023-02-11T19:19:10.238Z,51.08
2023-02-11T19:21:37.056Z,51.14
2023-02-11T19:24:07.992Z,51.21
2023-02-11T19:26:35.295Z,51.40
2023-02-11T19:29:02.326Z,51.57
2023-02-11T19:31:32.377Z,51.63
2023-02-11T19:34:00.303Z,51.47
2023-02-11T19:36:29.908Z,51.72
2023-02-11T19:38:59.938Z,51.78
2023-02-11T19:41:27.702Z,51.89
2023-02-11T19:43:56.747Z,51.57
2023-02-11T19:46:26.078Z,51.47
2023-02-11T19:48:53.270Z,51.45
2023-02-11T19:51:21.511Z,51.55
2023-02-11T19:53:48.972Z,51.41
2023-02-11T19:56:15.980Z,51.76
2023-02-11T19:58:43.828Z,51.57
2023-02-11T20:01:17.218Z,51.63
2023-02-11T20:03:44.145Z,51.73
2023-02-11T20:06:17.185Z,51.95
2023-02-11T20:08:44.775Z,52.14
2023-02-11T20:11:14.287Z,51.93
2023-02-11T20:13:41.731Z,52.12
2023-02-11T20:16:12.499Z,52.21
2023-02-11T20:18:40.748Z,52.27
2023-02-11T20:21:13.134Z,52.38
2023-02-11T20:23:40.810Z,52.61
2023-02-11T20:26:15.928Z,52.66
2023-02-11T20:28:43.170Z,52.84
2023-02-11T20:31:11.254Z,52.79
2023-02-11T20:33:38.686Z,53.06
2023-02-11T20:36:08.784Z,53.29
2023-02-11T20:38:35.740Z,53.26
2023-02-11T20:41:09.767Z,53.43
2023-02-11T20:43:38.073Z,53.24
2023-02-11T20:46:06.211Z,53.19
2023-02-11T20:48:34.211Z,53.30
2023-02-11T20:51:29.868Z,53.37
2023-02-11T20:53:57.369Z,53.58
2023-02-11T20:56:29.869Z,53.81
2023-02-11T20:58:58.502Z,53.75
2023-02-11T21:01:40.825Z,53.79
2023-02-11T21:04:12.424Z,54.19
2023-02-11T21:06:42.755Z,53.92
2023-02-11T21:09:13.572Z,53.87
2023-02-11T21:11:41.069Z,53.93
2023-02-11T21:14:10.057Z,53.64
2023-02-11T21:16:37.156Z,53.98
2023-02-11T21:19:04.328Z,54.04
2023-02-11T21:21:32.094Z,54.31
2023-02-11T21:23:58.991Z,54.18
2023-02-11T21:26:25.912Z,54.29
2023-02-11T21:28:55.080Z,54.03
2023-02-11T21:31:28.647Z,54.00
2023-02-11T21:33:56.715Z,54.20
2023-02-11T21:36:23.986Z,54.21
2023-02-11T21:38:52.580Z,54.15
2023-02-11T21:41:24.975Z,54.53
2023-02-11T21:43:52.255Z,54.25
2023-02-11T21:46:20.036Z,54.37
2023-02-11T21:48:47.903Z,54.06
2023-02-11T21:51:18.027Z,54.07
2023-02-11T21:53:44.878Z,54.10
2023-02-11T21:56:14.871Z,54.78
2023-02-11T21:58:41.691Z,54.92
2023-02-11T22:01:16.056Z,54.92
2023-02-11T22:03:43.590Z,55.09
2023-02-11T22:06:13.164Z,55.04
2023-02-11T22:08:40.428Z,54.96
2023-02-11T22:11:10.962Z,54.90
2023-02-11T22:13:38.199Z,54.78
2023-02-11T22:16:09.780Z,54.79
2023-02-11T22:18:37.132Z,54.79
2023-02-11T22:21:09.677Z,55.15
2023-02-11T22:23:37.711Z,55.34
2023-02-11T22:26:07.561Z,55.18
2023-02-11T22:28:35.598Z,55.12
2023-02-11T22:31:02.911Z,55.04
2023-02-11T22:33:29.653Z,55.09
2023-02-11T22:36:00.411Z,55.23
2023-02-11T22:38:29.109Z,55.26
2023-02-11T22:40:55.863Z,55.30
2023-02-11T22:43:22.526Z,55.39
2023-02-11T22:45:50.015Z,55.36
2023-02-11T22:48:17.362Z,55.54
2023-02-11T22:50:44.098Z,55.35
2023-02-11T22:53:10.730Z,55.51
2023-02-11T22:55:38.849Z,55.66
2023-02-11T22:58:06.090Z,55.42
2023-02-11T23:00:37.919Z,56.03
2023-02-11T23:03:06.124Z,56.41
2023-02-11T23:05:41.226Z,56.60
2023-02-11T23:08:10.405Z,56.56
2023-02-11T23:10:38.700Z,56.32
2023-02-11T23:13:07.533Z,56.33
2023-02-11T23:15:34.482Z,56.21
2023-02-11T23:18:01.252Z,56.37
2023-02-11T23:20:27.894Z,56.34
2023-02-11T23:22:54.614Z,56.68
2023-02-11T23:25:21.310Z,56.62
2023-02-11T23:27:47.979Z,56.73
2023-02-11T23:30:14.824Z,56.88
2023-02-11T23:32:41.533Z,56.70
2023-02-11T23:35:08.287Z,56.92
2023-02-11T23:37:34.924Z,57.17
2023-02-11T23:40:01.580Z,57.07
2023-02-11T23:42:29.245Z,57.30
2023-02-11T23:44:55.991Z,57.29
2023-02-11T23:47:22.730Z,57.25
2023-02-11T23:49:49.429Z,57.12
2023-02-11T23:52:16.237Z,56.99
2023-02-11T23:54:43.541Z,57.11
2023-02-11T23:57:10.277Z,57.05
2023-02-11T23:59:36.948Z,57.13
